sensor_id;sensor_type;location;lat;lon;timestamp;temperature;humidity
1594;DHT22;790;47.000;16.084;2023-10-31T00:00:30;14.50;99.90
1594;DHT22;790;47.000;16.084;2023-10-31T00:02:57;14.50;99.90
1594;DHT22;790;47.000;16.084;2023-10-31T00:05:24;14.60;99.90
1594;DHT22;790;47.000;16.084;2023-10-31T00:07:52;14.60;99.90
1594;DHT22;790;47.000;16.084;2023-10-31T00:10:20;14.60;99.90
1594;DHT22;790;47.000;16.084;2023-10-31T00:12:47;14.60;99.90
1594;DHT22;790;47.000;16.084;2023-10-31T00:15:14;14.50;99.90
1594;DHT22;790;47.000;16.084;2023-10-31T00:17:41;14.40;99.90
1594;DHT22;790;47.000;16.084;2023-10-31T00:20:09;14.30;99.90
1594;DHT22;790;47.000;16.084;2023-10-31T00:22:36;14.30;99.90
1594;DHT22;790;47.000;16.084;2023-10-31T00:25:05;14.30;99.90
1594;DHT22;790;47.000;16.084;2023-10-31T00:27:32;14.20;99.90
1594;DHT22;790;47.000;16.084;2023-10-31T00:29:59;14.20;99.90
1594;DHT22;790;47.000;16.084;2023-10-31T00:32:26;14.20;99.90
1594;DHT22;790;47.000;16.084;2023-10-31T00:34:53;14.10;99.90
1594;DHT22;790;47.000;16.084;2023-10-31T00:37:20;14.10;99.90
1594;DHT22;790;47.000;16.084;2023-10-31T00:39:47;14.10;99.90
1594;DHT22;790;47.000;16.084;2023-10-31T00:42:15;14.20;99.90
1594;DHT22;790;47.000;16.084;2023-10-31T00:44:42;14.20;99.90
1594;DHT22;790;47.000;16.084;2023-10-31T00:47:10;14.30;99.90
1594;DHT22;790;47.000;16.084;2023-10-31T00:49:37;14.30;99.90
1594;DHT22;790;47.000;16.084;2023-10-31T00:52:04;14.30;99.90
1594;DHT22;790;47.000;16.084;2023-10-31T00:54:31;14.20;99.90
1594;DHT22;790;47.000;16.084;2023-10-31T00:56:58;14.20;99.90
1594;DHT22;790;47.000;16.084;2023-10-31T00:59:26;14.20;99.90
1594;DHT22;790;47.000;16.084;2023-10-31T01:01:53;14.00;99.90
1594;DHT22;790;47.000;16.084;2023-10-31T01:04:20;14.10;99.90
1594;DHT22;790;47.000;16.084;2023-10-31T01:06:47;14.10;99.90
1594;DHT22;790;47.000;16.084;2023-10-31T01:09:15;14.10;99.90
1594;DHT22;790;47.000;16.084;2023-10-31T01:11:42;14.10;99.90
1594;DHT22;790;47.000;16.084;2023-10-31T01:14:09;14.20;99.90
1594;DHT22;790;47.000;16.084;2023-10-31T01:16:37;14.20;99.90
1594;DHT22;790;47.000;16.084;2023-10-31T01:19:04;14.20;99.90
1594;DHT22;790;47.000;16.084;2023-10-31T01:21:31;14.20;99.90
1594;DHT22;790;47.000;16.084;2023-10-31T01:23:58;14.10;99.90
1594;DHT22;790;47.000;16.084;2023-10-31T01:26:25;14.10;99.90
1594;DHT22;790;47.000;16.084;2023-10-31T01:28:53;14.20;99.90
1594;DHT22;790;47.000;16.084;2023-10-31T01:31:20;14.30;99.90
1594;DHT22;790;47.000;16.084;2023-10-31T01:33:48;14.30;99.90
1594;DHT22;790;47.000;16.084;2023-10-31T01:36:15;14.30;99.90
1594;DHT22;790;47.000;16.084;2023-10-31T01:38:44;14.40;99.90
1594;DHT22;790;47.000;16.084;2023-10-31T01:41:12;14.40;99.90
1594;DHT22;790;47.000;16.084;2023-10-31T01:43:39;14.50;99.90
1594;DHT22;790;47.000;16.084;2023-10-31T01:46:07;14.50;99.90
1594;DHT22;790;47.000;16.084;2023-10-31T01:48:34;14.60;99.90
1594;DHT22;790;47.000;16.084;2023-10-31T01:51:04;14.70;99.90
1594;DHT22;790;47.000;16.084;2023-10-31T01:53:32;14.60;99.90
1594;DHT22;790;47.000;16.084;2023-10-31T01:56:00;14.60;99.90
1594;DHT22;790;47.000;16.084;2023-10-31T01:58:29;14.60;99.90
1594;DHT22;790;47.000;16.084;2023-10-31T02:00:57;14.70;99.90
1594;DHT22;790;47.000;16.084;2023-10-31T02:03:24;14.60;99.90
1594;DHT22;790;47.000;16.084;2023-10-31T02:05:51;14.70;99.90
1594;DHT22;790;47.000;16.084;2023-10-31T02:08:20;14.70;99.90
1594;DHT22;790;47.000;16.084;2023-10-31T02:10:47;14.80;99.90
1594;DHT22;790;47.000;16.084;2023-10-31T02:13:15;14.80;99.90
1594;DHT22;790;47.000;16.084;2023-10-31T02:15:43;14.80;99.90
1594;DHT22;790;47.000;16.084;2023-10-31T02:18:10;14.80;99.90
1594;DHT22;790;47.000;16.084;2023-10-31T02:20:37;14.80;99.90
1594;DHT22;790;47.000;16.084;2023-10-31T02:23:06;14.80;99.90
1594;DHT22;790;47.000;16.084;2023-10-31T02:25:33;14.80;99.90
1594;DHT22;790;47.000;16.084;2023-10-31T02:28:00;14.80;99.90
1594;DHT22;790;47.000;16.084;2023-10-31T02:30:28;14.80;99.90
1594;DHT22;790;47.000;16.084;2023-10-31T02:32:55;14.80;99.90
1594;DHT22;790;47.000;16.084;2023-10-31T02:35:23;14.70;99.90
1594;DHT22;790;47.000;16.084;2023-10-31T02:37:50;14.70;99.90
1594;DHT22;790;47.000;16.084;2023-10-31T02:40:18;14.70;99.90
1594;DHT22;790;47.000;16.084;2023-10-31T02:42:45;14.70;99.90
1594;DHT22;790;47.000;16.084;2023-10-31T02:45:12;14.70;99.90
1594;DHT22;790;47.000;16.084;2023-10-31T02:47:40;14.70;99.90
1594;DHT22;790;47.000;16.084;2023-10-31T02:50:07;14.70;99.90
1594;DHT22;790;47.000;16.084;2023-10-31T02:52:34;14.70;99.90
1594;DHT22;790;47.000;16.084;2023-10-31T02:55:02;14.70;99.90
1594;DHT22;790;47.000;16.084;2023-10-31T02:57:30;14.70;99.90
1594;DHT22;790;47.000;16.084;2023-10-31T02:59:57;14.80;99.90
1594;DHT22;790;47.000;16.084;2023-10-31T03:02:24;14.70;99.90
1594;DHT22;790;47.000;16.084;2023-10-31T03:04:51;14.80;99.90
1594;DHT22;790;47.000;16.084;2023-10-31T03:07:18;14.90;99.90
1594;DHT22;790;47.000;16.084;2023-10-31T03:09:45;14.90;99.90
1594;DHT22;790;47.000;16.084;2023-10-31T03:12:12;14.90;99.90
1594;DHT22;790;47.000;16.084;2023-10-31T03:14:42;14.80;99.90
1594;DHT22;790;47.000;16.084;2023-10-31T03:17:09;14.80;99.90
1594;DHT22;790;47.000;16.084;2023-10-31T03:19:36;14.90;99.90
1594;DHT22;790;47.000;16.084;2023-10-31T03:22:03;14.90;99.90
1594;DHT22;790;47.000;16.084;2023-10-31T03:24:31;14.90;99.90
1594;DHT22;790;47.000;16.084;2023-10-31T03:26:58;14.90;99.90
1594;DHT22;790;47.000;16.084;2023-10-31T03:29:26;14.90;99.90
1594;DHT22;790;47.000;16.084;2023-10-31T03:31:54;14.90;99.90
1594;DHT22;790;47.000;16.084;2023-10-31T03:34:21;14.90;99.90
1594;DHT22;790;47.000;16.084;2023-10-31T03:36:48;14.90;99.90
1594;DHT22;790;47.000;16.084;2023-10-31T03:39:15;14.90;99.90
1594;DHT22;790;47.000;16.084;2023-10-31T03:41:42;14.90;99.90
1594;DHT22;790;47.000;16.084;2023-10-31T03:44:09;14.90;99.90
1594;DHT22;790;47.000;16.084;2023-10-31T03:46:36;15.00;99.90
1594;DHT22;790;47.000;16.084;2023-10-31T03:49:05;15.00;99.90
1594;DHT22;790;47.000;16.084;2023-10-31T03:51:33;15.00;99.90
1594;DHT22;790;47.000;16.084;2023-10-31T03:54:00;15.00;99.90
1594;DHT22;790;47.000;16.084;2023-10-31T03:56:27;15.00;99.90
1594;DHT22;790;47.000;16.084;2023-10-31T03:58:55;15.00;99.90
1594;DHT22;790;47.000;16.084;2023-10-31T04:01:22;15.00;99.90
1594;DHT22;790;47.000;16.084;2023-10-31T04:03:49;15.10;99.90
1594;DHT22;790;47.000;16.084;2023-10-31T04:06:19;15.10;99.90
1594;DHT22;790;47.000;16.084;2023-10-31T04:08:46;15.20;99.90
1594;DHT22;790;47.000;16.084;2023-10-31T04:11:13;15.10;99.90
1594;DHT22;790;47.000;16.084;2023-10-31T04:13:40;15.20;99.90
1594;DHT22;790;47.000;16.084;2023-10-31T04:16:07;15.20;99.90
1594;DHT22;790;47.000;16.084;2023-10-31T04:18:36;15.30;99.90
1594;DHT22;790;47.000;16.084;2023-10-31T04:21:03;15.30;99.90
1594;DHT22;790;47.000;16.084;2023-10-31T04:23:32;15.30;99.90
1594;DHT22;790;47.000;16.084;2023-10-31T04:25:59;15.30;99.90
1594;DHT22;790;47.000;16.084;2023-10-31T04:28:27;15.40;99.90
1594;DHT22;790;47.000;16.084;2023-10-31T04:30:54;15.50;99.90
1594;DHT22;790;47.000;16.084;2023-10-31T04:33:21;15.50;99.90
1594;DHT22;790;47.000;16.084;2023-10-31T04:35:48;15.50;99.90
1594;DHT22;790;47.000;16.084;2023-10-31T04:38:15;15.50;99.90
1594;DHT22;790;47.000;16.084;2023-10-31T04:40:43;15.50;99.90
1594;DHT22;790;47.000;16.084;2023-10-31T04:43:11;15.50;99.90
1594;DHT22;790;47.000;16.084;2023-10-31T04:45:38;15.50;99.90
1594;DHT22;790;47.000;16.084;2023-10-31T04:48:05;15.60;99.90
1594;DHT22;790;47.000;16.084;2023-10-31T04:50:32;15.60;99.90
1594;DHT22;790;47.000;16.084;2023-10-31T04:52:59;15.60;99.90
1594;DHT22;790;47.000;16.084;2023-10-31T04:55:27;15.60;99.90
1594;DHT22;790;47.000;16.084;2023-10-31T04:57:55;15.70;99.90
1594;DHT22;790;47.000;16.084;2023-10-31T05:00:22;15.70;99.90
1594;DHT22;790;47.000;16.084;2023-10-31T05:02:50;15.70;99.90
1594;DHT22;790;47.000;16.084;2023-10-31T05:05:19;15.70;99.90
1594;DHT22;790;47.000;16.084;2023-10-31T05:07:46;15.70;99.90
1594;DHT22;790;47.000;16.084;2023-10-31T05:10:13;15.70;99.90
1594;DHT22;790;47.000;16.084;2023-10-31T05:12:40;15.70;99.90
1594;DHT22;790;47.000;16.084;2023-10-31T05:15:09;15.70;99.90
1594;DHT22;790;47.000;16.084;2023-10-31T05:17:36;15.80;99.90
1594;DHT22;790;47.000;16.084;2023-10-31T05:20:04;15.90;99.90
1594;DHT22;790;47.000;16.084;2023-10-31T05:22:31;15.80;99.90
1594;DHT22;790;47.000;16.084;2023-10-31T05:24:58;15.80;99.90
1594;DHT22;790;47.000;16.084;2023-10-31T05:27:25;15.80;99.90
1594;DHT22;790;47.000;16.084;2023-10-31T05:29:52;15.80;99.90
1594;DHT22;790;47.000;16.084;2023-10-31T05:32:20;15.80;99.90
1594;DHT22;790;47.000;16.084;2023-10-31T05:34:48;15.90;99.90
1594;DHT22;790;47.000;16.084;2023-10-31T05:37:15;15.90;99.90
1594;DHT22;790;47.000;16.084;2023-10-31T05:39:42;15.80;99.90
1594;DHT22;790;47.000;16.084;2023-10-31T05:42:09;15.80;99.90
1594;DHT22;790;47.000;16.084;2023-10-31T05:44:36;15.90;99.90
1594;DHT22;790;47.000;16.084;2023-10-31T05:47:03;15.90;99.90
1594;DHT22;790;47.000;16.084;2023-10-31T05:49:32;15.90;99.90
1594;DHT22;790;47.000;16.084;2023-10-31T05:51:59;15.90;99.90
1594;DHT22;790;47.000;16.084;2023-10-31T05:54:26;15.90;99.90
1594;DHT22;790;47.000;16.084;2023-10-31T05:56:53;16.00;99.90
1594;DHT22;790;47.000;16.084;2023-10-31T05:59:20;16.00;99.90
1594;DHT22;790;47.000;16.084;2023-10-31T06:01:47;16.10;99.90
1594;DHT22;790;47.000;16.084;2023-10-31T06:04:16;16.10;99.90
1594;DHT22;790;47.000;16.084;2023-10-31T06:06:44;16.10;99.90
1594;DHT22;790;47.000;16.084;2023-10-31T06:09:11;16.10;99.90
1594;DHT22;790;47.000;16.084;2023-10-31T06:11:40;16.10;99.90
1594;DHT22;790;47.000;16.084;2023-10-31T06:14:09;16.10;99.90
1594;DHT22;790;47.000;16.084;2023-10-31T06:16:40;16.10;99.90
1594;DHT22;790;47.000;16.084;2023-10-31T06:19:07;16.10;99.90
1594;DHT22;790;47.000;16.084;2023-10-31T06:21:34;16.10;99.90
1594;DHT22;790;47.000;16.084;2023-10-31T06:24:03;16.10;99.90
1594;DHT22;790;47.000;16.084;2023-10-31T06:26:30;16.10;99.90
1594;DHT22;790;47.000;16.084;2023-10-31T06:28:58;16.20;99.90
1594;DHT22;790;47.000;16.084;2023-10-31T06:31:25;16.30;99.90
1594;DHT22;790;47.000;16.084;2023-10-31T06:33:52;16.30;99.90
1594;DHT22;790;47.000;16.084;2023-10-31T06:36:19;16.30;99.90
1594;DHT22;790;47.000;16.084;2023-10-31T06:38:47;16.30;99.90
1594;DHT22;790;47.000;16.084;2023-10-31T06:41:15;16.40;99.90
1594;DHT22;790;47.000;16.084;2023-10-31T06:43:43;16.40;99.90
1594;DHT22;790;47.000;16.084;2023-10-31T06:46:10;16.40;99.90
1594;DHT22;790;47.000;16.084;2023-10-31T06:48:37;16.50;99.90
1594;DHT22;790;47.000;16.084;2023-10-31T06:51:04;16.40;99.90
1594;DHT22;790;47.000;16.084;2023-10-31T06:53:31;16.50;99.90
1594;DHT22;790;47.000;16.084;2023-10-31T06:55:58;16.50;99.90
1594;DHT22;790;47.000;16.084;2023-10-31T06:58:27;16.50;99.90
1594;DHT22;790;47.000;16.084;2023-10-31T07:00:54;16.60;99.90
1594;DHT22;790;47.000;16.084;2023-10-31T07:03:23;16.60;99.90
1594;DHT22;790;47.000;16.084;2023-10-31T07:05:51;16.70;99.90
1594;DHT22;790;47.000;16.084;2023-10-31T07:08:19;16.70;99.90
1594;DHT22;790;47.000;16.084;2023-10-31T07:10:46;16.70;99.90
1594;DHT22;790;47.000;16.084;2023-10-31T07:13:13;16.80;99.90
1594;DHT22;790;47.000;16.084;2023-10-31T07:15:41;16.80;99.90
1594;DHT22;790;47.000;16.084;2023-10-31T07:18:12;16.70;99.90
1594;DHT22;790;47.000;16.084;2023-10-31T07:20:39;16.70;99.90
1594;DHT22;790;47.000;16.084;2023-10-31T07:23:06;16.70;99.90
1594;DHT22;790;47.000;16.084;2023-10-31T07:25:33;16.70;99.90
1594;DHT22;790;47.000;16.084;2023-10-31T07:28:00;16.60;99.90
1594;DHT22;790;47.000;16.084;2023-10-31T07:30:27;16.60;99.90
1594;DHT22;790;47.000;16.084;2023-10-31T07:32:55;16.60;99.90
1594;DHT22;790;47.000;16.084;2023-10-31T07:35:23;16.60;99.90
1594;DHT22;790;47.000;16.084;2023-10-31T07:37:50;16.60;99.90
1594;DHT22;790;47.000;16.084;2023-10-31T07:40:17;16.60;99.90
1594;DHT22;790;47.000;16.084;2023-10-31T07:42:44;16.60;99.90
1594;DHT22;790;47.000;16.084;2023-10-31T07:45:11;16.60;99.90
1594;DHT22;790;47.000;16.084;2023-10-31T07:47:38;16.70;99.90
1594;DHT22;790;47.000;16.084;2023-10-31T07:50:07;16.70;99.90
1594;DHT22;790;47.000;16.084;2023-10-31T07:52:35;16.70;99.90
1594;DHT22;790;47.000;16.084;2023-10-31T07:55:03;16.70;99.90
1594;DHT22;790;47.000;16.084;2023-10-31T07:57:30;16.70;99.90
1594;DHT22;790;47.000;16.084;2023-10-31T07:59:57;16.60;99.90
1594;DHT22;790;47.000;16.084;2023-10-31T08:02:24;16.60;99.90
1594;DHT22;790;47.000;16.084;2023-10-31T08:04:51;16.50;99.90
1594;DHT22;790;47.000;16.084;2023-10-31T08:07:19;16.50;99.90
1594;DHT22;790;47.000;16.084;2023-10-31T08:09:46;16.50;99.90
1594;DHT22;790;47.000;16.084;2023-10-31T08:12:14;16.50;99.90
1594;DHT22;790;47.000;16.084;2023-10-31T08:14:41;16.50;99.90
1594;DHT22;790;47.000;16.084;2023-10-31T08:17:08;16.40;99.90
1594;DHT22;790;47.000;16.084;2023-10-31T08:19:35;16.40;99.90
1594;DHT22;790;47.000;16.084;2023-10-31T08:22:04;16.50;99.90
1594;DHT22;790;47.000;16.084;2023-10-31T08:24:32;16.40;99.90
1594;DHT22;790;47.000;16.084;2023-10-31T08:27:02;16.50;99.90
1594;DHT22;790;47.000;16.084;2023-10-31T08:29:29;16.50;99.90
1594;DHT22;790;47.000;16.084;2023-10-31T08:31:56;16.40;99.90
1594;DHT22;790;47.000;16.084;2023-10-31T08:34:23;16.50;99.90
1594;DHT22;790;47.000;16.084;2023-10-31T08:36:50;16.40;99.90
1594;DHT22;790;47.000;16.084;2023-10-31T08:39:19;16.50;99.90
1594;DHT22;790;47.000;16.084;2023-10-31T08:41:51;16.50;99.90
1594;DHT22;790;47.000;16.084;2023-10-31T08:44:18;16.60;99.90
1594;DHT22;790;47.000;16.084;2023-10-31T08:46:46;16.60;99.90
1594;DHT22;790;47.000;16.084;2023-10-31T08:49:13;16.60;99.90
1594;DHT22;790;47.000;16.084;2023-10-31T08:51:41;16.60;99.90
1594;DHT22;790;47.000;16.084;2023-10-31T08:54:08;16.60;99.90
1594;DHT22;790;47.000;16.084;2023-10-31T08:56:35;16.50;99.90
1594;DHT22;790;47.000;16.084;2023-10-31T08:59:04;16.60;99.90
1594;DHT22;790;47.000;16.084;2023-10-31T09:01:31;16.60;99.90
1594;DHT22;790;47.000;16.084;2023-10-31T09:03:59;16.60;99.90
1594;DHT22;790;47.000;16.084;2023-10-31T09:06:26;16.60;99.90
1594;DHT22;790;47.000;16.084;2023-10-31T09:08:53;16.60;99.90
1594;DHT22;790;47.000;16.084;2023-10-31T09:11:20;16.60;99.90
1594;DHT22;790;47.000;16.084;2023-10-31T09:13:47;16.60;99.90
1594;DHT22;790;47.000;16.084;2023-10-31T09:16:16;16.60;99.90
1594;DHT22;790;47.000;16.084;2023-10-31T09:18:43;16.50;99.90
1594;DHT22;790;47.000;16.084;2023-10-31T09:21:10;16.60;99.90
1594;DHT22;790;47.000;16.084;2023-10-31T09:23:37;16.60;99.90
1594;DHT22;790;47.000;16.084;2023-10-31T09:26:05;16.50;99.90
1594;DHT22;790;47.000;16.084;2023-10-31T09:28:33;16.40;99.90
1594;DHT22;790;47.000;16.084;2023-10-31T09:31:16;16.30;99.90
1594;DHT22;790;47.000;16.084;2023-10-31T09:33:49;16.30;99.90
1594;DHT22;790;47.000;16.084;2023-10-31T09:36:16;16.30;99.90
1594;DHT22;790;47.000;16.084;2023-10-31T09:38:43;16.30;99.90
1594;DHT22;790;47.000;16.084;2023-10-31T09:41:12;16.30;99.90
1594;DHT22;790;47.000;16.084;2023-10-31T09:43:39;16.30;99.90
1594;DHT22;790;47.000;16.084;2023-10-31T09:46:07;16.30;99.90
1594;DHT22;790;47.000;16.084;2023-10-31T09:48:38;16.40;99.90
1594;DHT22;790;47.000;16.084;2023-10-31T09:51:06;16.50;99.90
1594;DHT22;790;47.000;16.084;2023-10-31T09:53:34;16.50;99.90
1594;DHT22;790;47.000;16.084;2023-10-31T09:56:05;16.40;99.90
1594;DHT22;790;47.000;16.084;2023-10-31T09:58:33;16.40;99.90
1594;DHT22;790;47.000;16.084;2023-10-31T10:01:00;16.40;99.90
1594;DHT22;790;47.000;16.084;2023-10-31T10:03:27;16.50;99.90
1594;DHT22;790;47.000;16.084;2023-10-31T10:05:57;16.50;99.90
1594;DHT22;790;47.000;16.084;2023-10-31T10:08:24;16.50;99.90
1594;DHT22;790;47.000;16.084;2023-10-31T10:10:52;16.50;99.90
1594;DHT22;790;47.000;16.084;2023-10-31T10:13:20;16.50;99.90
1594;DHT22;790;47.000;16.084;2023-10-31T10:15:50;16.50;99.90
1594;DHT22;790;47.000;16.084;2023-10-31T10:18:25;16.50;99.90
1594;DHT22;790;47.000;16.084;2023-10-31T10:20:58;16.60;99.90
1594;DHT22;790;47.000;16.084;2023-10-31T10:23:26;16.70;99.90
1594;DHT22;790;47.000;16.084;2023-10-31T10:25:54;16.60;99.90
1594;DHT22;790;47.000;16.084;2023-10-31T10:28:21;16.30;99.90
1594;DHT22;790;47.000;16.084;2023-10-31T10:30:51;15.90;99.90
1594;DHT22;790;47.000;16.084;2023-10-31T10:33:18;15.40;99.90
1594;DHT22;790;47.000;16.084;2023-10-31T10:35:45;15.30;99.90
1594;DHT22;790;47.000;16.084;2023-10-31T10:38:15;15.00;99.90
1594;DHT22;790;47.000;16.084;2023-10-31T10:40:43;14.90;99.90
1594;DHT22;790;47.000;16.084;2023-10-31T10:43:13;14.80;99.90
1594;DHT22;790;47.000;16.084;2023-10-31T10:45:42;14.70;99.90
1594;DHT22;790;47.000;16.084;2023-10-31T10:48:12;14.60;99.90
1594;DHT22;790;47.000;16.084;2023-10-31T10:50:42;14.60;99.90
1594;DHT22;790;47.000;16.084;2023-10-31T10:53:21;14.70;99.90
1594;DHT22;790;47.000;16.084;2023-10-31T10:55:52;14.60;99.90
1594;DHT22;790;47.000;16.084;2023-10-31T10:58:30;14.60;99.90
1594;DHT22;790;47.000;16.084;2023-10-31T11:00:59;14.60;99.90
1594;DHT22;790;47.000;16.084;2023-10-31T11:03:26;14.60;99.90
1594;DHT22;790;47.000;16.084;2023-10-31T11:05:54;14.60;99.90
1594;DHT22;790;47.000;16.084;2023-10-31T11:08:25;14.70;99.90
1594;DHT22;790;47.000;16.084;2023-10-31T11:10:53;14.50;99.90
1594;DHT22;790;47.000;16.084;2023-10-31T11:13:22;14.50;99.90
1594;DHT22;790;47.000;16.084;2023-10-31T11:15:53;14.60;99.90
1594;DHT22;790;47.000;16.084;2023-10-31T11:18:22;14.60;99.90
1594;DHT22;790;47.000;16.084;2023-10-31T11:20:50;14.50;99.90
1594;DHT22;790;47.000;16.084;2023-10-31T11:23:17;14.50;99.90
1594;DHT22;790;47.000;16.084;2023-10-31T11:25:50;14.40;99.90
1594;DHT22;790;47.000;16.084;2023-10-31T11:28:19;14.20;99.90
1594;DHT22;790;47.000;16.084;2023-10-31T11:30:48;14.20;99.90
1594;DHT22;790;47.000;16.084;2023-10-31T11:33:19;14.20;99.90
1594;DHT22;790;47.000;16.084;2023-10-31T11:35:50;14.00;99.90
1594;DHT22;790;47.000;16.084;2023-10-31T11:38:30;13.90;99.90
1594;DHT22;790;47.000;16.084;2023-10-31T11:41:01;13.90;99.90
1594;DHT22;790;47.000;16.084;2023-10-31T11:43:51;13.70;99.90
1594;DHT22;790;47.000;16.084;2023-10-31T11:46:19;13.70;99.90
1594;DHT22;790;47.000;16.084;2023-10-31T11:48:49;13.80;99.90
1594;DHT22;790;47.000;16.084;2023-10-31T11:51:17;13.80;99.90
1594;DHT22;790;47.000;16.084;2023-10-31T11:53:44;13.80;99.90
1594;DHT22;790;47.000;16.084;2023-10-31T11:56:13;13.90;99.90
1594;DHT22;790;47.000;16.084;2023-10-31T11:58:40;14.10;99.90
1594;DHT22;790;47.000;16.084;2023-10-31T12:01:09;14.10;99.90
1594;DHT22;790;47.000;16.084;2023-10-31T12:03:40;14.20;99.90
1594;DHT22;790;47.000;16.084;2023-10-31T12:06:08;14.30;99.90
1594;DHT22;790;47.000;16.084;2023-10-31T12:08:37;14.30;99.90
1594;DHT22;790;47.000;16.084;2023-10-31T12:11:06;14.10;99.90
1594;DHT22;790;47.000;16.084;2023-10-31T12:13:36;14.10;99.90
1594;DHT22;790;47.000;16.084;2023-10-31T12:16:04;14.10;99.90
1594;DHT22;790;47.000;16.084;2023-10-31T12:18:31;14.00;99.90
1594;DHT22;790;47.000;16.084;2023-10-31T12:20:58;13.90;99.90
1594;DHT22;790;47.000;16.084;2023-10-31T12:23:26;13.80;99.90
1594;DHT22;790;47.000;16.084;2023-10-31T12:25:53;13.50;99.90
1594;DHT22;790;47.000;16.084;2023-10-31T12:28:21;13.40;99.90
1594;DHT22;790;47.000;16.084;2023-10-31T12:30:52;13.20;99.90
1594;DHT22;790;47.000;16.084;2023-10-31T12:33:21;13.20;99.90
1594;DHT22;790;47.000;16.084;2023-10-31T12:35:51;13.10;99.90
1594;DHT22;790;47.000;16.084;2023-10-31T12:38:19;13.00;99.90
1594;DHT22;790;47.000;16.084;2023-10-31T12:40:47;12.90;99.90
1594;DHT22;790;47.000;16.084;2023-10-31T12:43:16;12.80;99.90
1594;DHT22;790;47.000;16.084;2023-10-31T12:45:43;12.90;99.90
1594;DHT22;790;47.000;16.084;2023-10-31T12:48:12;13.00;99.90
1594;DHT22;790;47.000;16.084;2023-10-31T12:50:39;13.00;99.90
1594;DHT22;790;47.000;16.084;2023-10-31T12:53:07;13.00;99.90
1594;DHT22;790;47.000;16.084;2023-10-31T12:55:39;12.90;99.90
1594;DHT22;790;47.000;16.084;2023-10-31T12:58:07;12.90;99.90
1594;DHT22;790;47.000;16.084;2023-10-31T13:00:36;12.80;99.90
1594;DHT22;790;47.000;16.084;2023-10-31T13:03:05;12.80;99.90
1594;DHT22;790;47.000;16.084;2023-10-31T13:05:35;12.70;99.90
1594;DHT22;790;47.000;16.084;2023-10-31T13:08:04;12.70;99.90
1594;DHT22;790;47.000;16.084;2023-10-31T13:10:36;12.80;99.90
1594;DHT22;790;47.000;16.084;2023-10-31T13:13:03;12.80;99.90
1594;DHT22;790;47.000;16.084;2023-10-31T13:15:30;12.80;99.90
1594;DHT22;790;47.000;16.084;2023-10-31T13:17:57;12.80;99.90
1594;DHT22;790;47.000;16.084;2023-10-31T13:20:24;12.90;99.90
1594;DHT22;790;47.000;16.084;2023-10-31T13:22:53;12.90;99.90
1594;DHT22;790;47.000;16.084;2023-10-31T13:25:20;12.90;99.90
1594;DHT22;790;47.000;16.084;2023-10-31T13:27:48;13.00;99.90
1594;DHT22;790;47.000;16.084;2023-10-31T13:30:17;12.90;99.90
1594;DHT22;790;47.000;16.084;2023-10-31T13:32:45;12.90;99.90
1594;DHT22;790;47.000;16.084;2023-10-31T13:35:12;13.00;99.90
1594;DHT22;790;47.000;16.084;2023-10-31T13:37:40;13.10;99.90
1594;DHT22;790;47.000;16.084;2023-10-31T13:40:09;13.20;99.90
1594;DHT22;790;47.000;16.084;2023-10-31T13:42:37;13.30;99.90
1594;DHT22;790;47.000;16.084;2023-10-31T13:45:06;13.40;99.90
1594;DHT22;790;47.000;16.084;2023-10-31T13:47:33;13.40;99.90
1594;DHT22;790;47.000;16.084;2023-10-31T13:50:01;13.40;99.90
1594;DHT22;790;47.000;16.084;2023-10-31T13:52:28;13.30;99.90
1594;DHT22;790;47.000;16.084;2023-10-31T13:54:55;13.30;99.90
1594;DHT22;790;47.000;16.084;2023-10-31T13:57:23;13.30;99.90
1594;DHT22;790;47.000;16.084;2023-10-31T13:59:51;13.30;99.90
1594;DHT22;790;47.000;16.084;2023-10-31T14:02:18;13.30;99.90
1594;DHT22;790;47.000;16.084;2023-10-31T14:04:45;13.20;99.90
1594;DHT22;790;47.000;16.084;2023-10-31T14:07:21;13.30;99.90
1594;DHT22;790;47.000;16.084;2023-10-31T14:09:48;13.20;99.90
1594;DHT22;790;47.000;16.084;2023-10-31T14:12:16;13.30;99.90
1594;DHT22;790;47.000;16.084;2023-10-31T14:14:44;13.20;99.90
1594;DHT22;790;47.000;16.084;2023-10-31T14:17:13;13.30;99.90
1594;DHT22;790;47.000;16.084;2023-10-31T14:19:42;13.20;99.90
1594;DHT22;790;47.000;16.084;2023-10-31T14:22:11;13.20;99.90
1594;DHT22;790;47.000;16.084;2023-10-31T14:24:38;13.20;99.90
1594;DHT22;790;47.000;16.084;2023-10-31T14:27:05;13.20;99.90
1594;DHT22;790;47.000;16.084;2023-10-31T14:29:33;13.20;99.90
1594;DHT22;790;47.000;16.084;2023-10-31T14:32:06;13.20;99.90
1594;DHT22;790;47.000;16.084;2023-10-31T14:34:34;13.30;99.90
1594;DHT22;790;47.000;16.084;2023-10-31T14:37:02;13.30;99.90
1594;DHT22;790;47.000;16.084;2023-10-31T14:39:31;13.30;99.90
1594;DHT22;790;47.000;16.084;2023-10-31T14:41:59;13.40;99.90
1594;DHT22;790;47.000;16.084;2023-10-31T14:44:26;13.50;99.90
1594;DHT22;790;47.000;16.084;2023-10-31T14:46:53;13.50;99.90
1594;DHT22;790;47.000;16.084;2023-10-31T14:49:22;13.40;99.90
1594;DHT22;790;47.000;16.084;2023-10-31T14:51:49;13.40;99.90
1594;DHT22;790;47.000;16.084;2023-10-31T14:54:16;13.40;99.90
1594;DHT22;790;47.000;16.084;2023-10-31T14:56:43;13.50;99.90
1594;DHT22;790;47.000;16.084;2023-10-31T14:59:10;13.40;99.90
1594;DHT22;790;47.000;16.084;2023-10-31T15:01:37;13.40;99.90
1594;DHT22;790;47.000;16.084;2023-10-31T15:04:05;13.40;99.90
1594;DHT22;790;47.000;16.084;2023-10-31T15:06:34;13.30;99.90
1594;DHT22;790;47.000;16.084;2023-10-31T15:09:02;13.40;99.90
1594;DHT22;790;47.000;16.084;2023-10-31T15:11:29;13.40;99.90
1594;DHT22;790;47.000;16.084;2023-10-31T15:13:56;13.20;99.90
1594;DHT22;790;47.000;16.084;2023-10-31T15:16:23;13.00;99.90
1594;DHT22;790;47.000;16.084;2023-10-31T15:18:50;12.90;99.90
1594;DHT22;790;47.000;16.084;2023-10-31T15:21:17;12.90;99.90
1594;DHT22;790;47.000;16.084;2023-10-31T15:23:46;12.80;99.90
1594;DHT22;790;47.000;16.084;2023-10-31T15:26:13;12.70;99.90
1594;DHT22;790;47.000;16.084;2023-10-31T15:28:41;12.60;99.90
1594;DHT22;790;47.000;16.084;2023-10-31T15:31:09;12.50;99.90
1594;DHT22;790;47.000;16.084;2023-10-31T15:33:36;12.50;99.90
1594;DHT22;790;47.000;16.084;2023-10-31T15:36:09;12.30;99.90
1594;DHT22;790;47.000;16.084;2023-10-31T15:38:36;12.20;99.90
1594;DHT22;790;47.000;16.084;2023-10-31T15:41:05;12.20;99.90
1594;DHT22;790;47.000;16.084;2023-10-31T15:43:32;12.00;99.90
1594;DHT22;790;47.000;16.084;2023-10-31T15:45:59;11.90;99.90
1594;DHT22;790;47.000;16.084;2023-10-31T15:48:26;11.90;99.90
1594;DHT22;790;47.000;16.084;2023-10-31T15:50:53;11.90;99.90
1594;DHT22;790;47.000;16.084;2023-10-31T15:53:21;11.80;99.90
1594;DHT22;790;47.000;16.084;2023-10-31T15:55:49;11.70;99.90
1594;DHT22;790;47.000;16.084;2023-10-31T15:58:18;11.70;99.90
1594;DHT22;790;47.000;16.084;2023-10-31T16:00:45;11.70;99.90
1594;DHT22;790;47.000;16.084;2023-10-31T16:03:12;11.80;99.90
1594;DHT22;790;47.000;16.084;2023-10-31T16:05:39;11.90;99.90